sensor_id;sensor_type;location;lat;lon;timestamp;P1;durP1;ratioP1;P2;durP2;ratioP2
44508;SDS011;30214;52.246;14.408;2023-05-16T00:00:48;5.70;;;3.90;;
44508;SDS011;30214;52.246;14.408;2023-05-16T00:03:17;6.20;;;4.20;;
44508;SDS011;30214;52.246;14.408;2023-05-16T00:05:44;8.00;;;4.43;;
44508;SDS011;30214;52.246;14.408;2023-05-16T00:08:12;5.03;;;4.43;;
44508;SDS011;30214;52.246;14.408;2023-05-16T00:10:39;5.75;;;4.30;;
44508;SDS011;30214;52.246;14.408;2023-05-16T00:13:07;4.47;;;4.00;;
44508;SDS011;30214;52.246;14.408;2023-05-16T00:15:35;8.23;;;4.40;;
44508;SDS011;30214;52.246;14.408;2023-05-16T00:18:02;6.60;;;4.25;;
44508;SDS011;30214;52.246;14.408;2023-05-16T00:20:30;9.38;;;4.25;;
44508;SDS011;30214;52.246;14.408;2023-05-16T00:22:57;5.93;;;4.03;;
44508;SDS011;30214;52.246;14.408;2023-05-16T00:25:25;5.20;;;4.05;;
44508;SDS011;30214;52.246;14.408;2023-05-16T00:27:52;5.55;;;4.45;;
44508;SDS011;30214;52.246;14.408;2023-05-16T00:30:21;4.93;;;4.32;;
44508;SDS011;30214;52.246;14.408;2023-05-16T00:32:50;7.32;;;4.72;;
44508;SDS011;30214;52.246;14.408;2023-05-16T00:35:17;6.53;;;4.60;;
44508;SDS011;30214;52.246;14.408;2023-05-16T00:37:44;5.43;;;4.70;;
44508;SDS011;30214;52.246;14.408;2023-05-16T00:40:11;5.38;;;4.60;;
44508;SDS011;30214;52.246;14.408;2023-05-16T00:42:38;5.50;;;4.53;;
44508;SDS011;30214;52.246;14.408;2023-05-16T00:45:06;5.95;;;4.65;;
44508;SDS011;30214;52.246;14.408;2023-05-16T00:47:37;5.53;;;4.90;;
44508;SDS011;30214;52.246;14.408;2023-05-16T00:50:04;6.30;;;5.18;;
44508;SDS011;30214;52.246;14.408;2023-05-16T00:52:32;7.07;;;5.13;;
44508;SDS011;30214;52.246;14.408;2023-05-16T00:55:01;6.40;;;5.15;;
44508;SDS011;30214;52.246;14.408;2023-05-16T00:57:29;6.72;;;5.00;;
44508;SDS011;30214;52.246;14.408;2023-05-16T00:59:56;7.68;;;5.20;;
44508;SDS011;30214;52.246;14.408;2023-05-16T01:02:23;8.85;;;4.82;;
44508;SDS011;30214;52.246;14.408;2023-05-16T01:04:54;6.97;;;4.88;;
44508;SDS011;30214;52.246;14.408;2023-05-16T01:07:21;5.70;;;4.88;;
44508;SDS011;30214;52.246;14.408;2023-05-16T01:09:49;7.85;;;4.80;;
44508;SDS011;30214;52.246;14.408;2023-05-16T01:12:18;7.18;;;5.10;;
44508;SDS011;30214;52.246;14.408;2023-05-16T01:14:59;6.78;;;5.00;;
44508;SDS011;30214;52.246;14.408;2023-05-16T01:17:35;6.72;;;4.57;;
44508;SDS011;30214;52.246;14.408;2023-05-16T01:20:15;5.72;;;4.72;;
44508;SDS011;30214;52.246;14.408;2023-05-16T01:23:06;5.45;;;4.55;;
44508;SDS011;30214;52.246;14.408;2023-05-16T01:25:52;6.70;;;5.65;;
44508;SDS011;30214;52.246;14.408;2023-05-16T01:28:24;6.18;;;4.82;;
44508;SDS011;30214;52.246;14.408;2023-05-16T01:30:53;5.80;;;4.80;;
44508;SDS011;30214;52.246;14.408;2023-05-16T01:33:21;7.80;;;5.30;;
44508;SDS011;30214;52.246;14.408;2023-05-16T01:35:50;8.00;;;4.82;;
44508;SDS011;30214;52.246;14.408;2023-05-16T01:38:24;5.97;;;4.70;;
44508;SDS011;30214;52.246;14.408;2023-05-16T01:40:53;5.82;;;4.85;;
44508;SDS011;30214;52.246;14.408;2023-05-16T01:43:29;5.35;;;4.72;;
44508;SDS011;30214;52.246;14.408;2023-05-16T01:46:02;5.63;;;4.40;;
44508;SDS011;30214;52.246;14.408;2023-05-16T01:48:38;6.28;;;5.47;;
44508;SDS011;30214;52.246;14.408;2023-05-16T01:51:15;6.63;;;5.20;;
44508;SDS011;30214;52.246;14.408;2023-05-16T01:53:43;5.70;;;4.47;;
44508;SDS011;30214;52.246;14.408;2023-05-16T01:56:13;6.78;;;5.22;;
44508;SDS011;30214;52.246;14.408;2023-05-16T01:58:43;6.53;;;5.05;;
44508;SDS011;30214;52.246;14.408;2023-05-16T02:01:13;6.70;;;4.68;;
44508;SDS011;30214;52.246;14.408;2023-05-16T02:03:40;6.00;;;5.25;;
44508;SDS011;30214;52.246;14.408;2023-05-16T02:06:08;9.88;;;5.07;;
44508;SDS011;30214;52.246;14.408;2023-05-16T02:08:35;6.10;;;5.10;;
44508;SDS011;30214;52.246;14.408;2023-05-16T02:11:02;7.70;;;4.80;;
44508;SDS011;30214;52.246;14.408;2023-05-16T02:13:29;7.03;;;4.65;;
44508;SDS011;30214;52.246;14.408;2023-05-16T02:16:02;6.15;;;5.53;;
44508;SDS011;30214;52.246;14.408;2023-05-16T02:18:30;5.63;;;4.97;;
44508;SDS011;30214;52.246;14.408;2023-05-16T02:20:57;6.63;;;5.65;;
44508;SDS011;30214;52.246;14.408;2023-05-16T02:23:24;5.45;;;4.90;;
44508;SDS011;30214;52.246;14.408;2023-05-16T02:25:52;9.45;;;5.28;;
44508;SDS011;30214;52.246;14.408;2023-05-16T02:28:21;6.28;;;4.80;;
44508;SDS011;30214;52.246;14.408;2023-05-16T02:30:54;7.03;;;5.30;;
44508;SDS011;30214;52.246;14.408;2023-05-16T02:33:24;7.10;;;5.85;;
44508;SDS011;30214;52.246;14.408;2023-05-16T02:35:51;6.28;;;5.10;;
44508;SDS011;30214;52.246;14.408;2023-05-16T02:38:18;6.38;;;5.18;;
44508;SDS011;30214;52.246;14.408;2023-05-16T02:40:46;7.45;;;4.95;;
44508;SDS011;30214;52.246;14.408;2023-05-16T02:43:14;7.25;;;5.35;;
44508;SDS011;30214;52.246;14.408;2023-05-16T02:45:41;6.30;;;5.70;;
44508;SDS011;30214;52.246;14.408;2023-05-16T02:48:09;7.75;;;5.88;;
44508;SDS011;30214;52.246;14.408;2023-05-16T02:50:38;5.63;;;5.05;;
44508;SDS011;30214;52.246;14.408;2023-05-16T02:53:06;8.25;;;5.65;;
44508;SDS011;30214;52.246;14.408;2023-05-16T02:55:33;6.80;;;5.55;;
44508;SDS011;30214;52.246;14.408;2023-05-16T02:58:00;9.20;;;5.95;;
44508;SDS011;30214;52.246;14.408;2023-05-16T03:00:28;7.32;;;5.05;;
44508;SDS011;30214;52.246;14.408;2023-05-16T03:02:55;6.50;;;5.35;;
44508;SDS011;30214;52.246;14.408;2023-05-16T03:05:22;6.65;;;5.63;;
44508;SDS011;30214;52.246;14.408;2023-05-16T03:07:51;8.98;;;6.75;;
44508;SDS011;30214;52.246;14.408;2023-05-16T03:10:18;6.65;;;5.95;;
44508;SDS011;30214;52.246;14.408;2023-05-16T03:12:45;10.63;;;6.13;;
44508;SDS011;30214;52.246;14.408;2023-05-16T03:15:12;7.30;;;5.97;;
44508;SDS011;30214;52.246;14.408;2023-05-16T03:17:39;10.20;;;6.32;;
44508;SDS011;30214;52.246;14.408;2023-05-16T03:20:07;9.00;;;6.95;;
44508;SDS011;30214;52.246;14.408;2023-05-16T03:22:36;7.88;;;6.97;;
44508;SDS011;30214;52.246;14.408;2023-05-16T03:25:06;11.77;;;7.30;;
44508;SDS011;30214;52.246;14.408;2023-05-16T03:27:33;13.65;;;7.50;;
44508;SDS011;30214;52.246;14.408;2023-05-16T03:30:01;10.35;;;7.70;;
44508;SDS011;30214;52.246;14.408;2023-05-16T03:32:28;10.13;;;8.75;;
44508;SDS011;30214;52.246;14.408;2023-05-16T03:34:55;11.18;;;8.73;;
44508;SDS011;30214;52.246;14.408;2023-05-16T03:37:22;10.73;;;8.90;;
44508;SDS011;30214;52.246;14.408;2023-05-16T03:39:50;13.32;;;10.38;;
44508;SDS011;30214;52.246;14.408;2023-05-16T03:42:19;13.60;;;10.43;;
44508;SDS011;30214;52.246;14.408;2023-05-16T03:44:46;13.57;;;11.20;;
44508;SDS011;30214;52.246;14.408;2023-05-16T03:47:13;15.32;;;11.30;;
44508;SDS011;30214;52.246;14.408;2023-05-16T03:49:40;12.07;;;10.88;;
44508;SDS011;30214;52.246;14.408;2023-05-16T03:52:07;13.90;;;11.50;;
44508;SDS011;30214;52.246;14.408;2023-05-16T03:54:34;14.50;;;12.00;;
44508;SDS011;30214;52.246;14.408;2023-05-16T03:57:01;18.65;;;12.73;;
44508;SDS011;30214;52.246;14.408;2023-05-16T03:59:30;16.92;;;12.10;;
44508;SDS011;30214;52.246;14.408;2023-05-16T04:01:58;20.08;;;12.23;;
44508;SDS011;30214;52.246;14.408;2023-05-16T04:04:25;15.07;;;12.68;;
44508;SDS011;30214;52.246;14.408;2023-05-16T04:06:52;19.40;;;13.38;;
44508;SDS011;30214;52.246;14.408;2023-05-16T04:09:19;16.85;;;14.07;;
44508;SDS011;30214;52.246;14.408;2023-05-16T04:11:49;21.92;;;13.75;;
44508;SDS011;30214;52.246;14.408;2023-05-16T04:14:17;18.40;;;14.25;;
44508;SDS011;30214;52.246;14.408;2023-05-16T04:16:46;16.02;;;13.88;;
44508;SDS011;30214;52.246;14.408;2023-05-16T04:19:13;18.45;;;13.63;;
44508;SDS011;30214;52.246;14.408;2023-05-16T04:21:40;15.20;;;13.60;;
44508;SDS011;30214;52.246;14.408;2023-05-16T04:24:07;16.63;;;13.73;;
44508;SDS011;30214;52.246;14.408;2023-05-16T04:26:34;17.83;;;13.82;;
44508;SDS011;30214;52.246;14.408;2023-05-16T04:29:02;21.60;;;14.43;;
44508;SDS011;30214;52.246;14.408;2023-05-16T04:31:30;18.85;;;14.43;;
44508;SDS011;30214;52.246;14.408;2023-05-16T04:33:58;18.38;;;14.65;;
44508;SDS011;30214;52.246;14.408;2023-05-16T04:36:25;17.83;;;14.70;;
44508;SDS011;30214;52.246;14.408;2023-05-16T04:38:54;18.98;;;14.75;;
44508;SDS011;30214;52.246;14.408;2023-05-16T04:41:21;20.00;;;15.27;;
44508;SDS011;30214;52.246;14.408;2023-05-16T04:43:48;23.42;;;15.35;;
44508;SDS011;30214;52.246;14.408;2023-05-16T04:46:16;20.40;;;14.90;;
44508;SDS011;30214;52.246;14.408;2023-05-16T04:48:45;18.23;;;15.25;;
44508;SDS011;30214;52.246;14.408;2023-05-16T04:51:13;21.75;;;16.40;;
44508;SDS011;30214;52.246;14.408;2023-05-16T04:53:41;23.95;;;16.48;;
44508;SDS011;30214;52.246;14.408;2023-05-16T04:56:08;20.45;;;16.13;;
44508;SDS011;30214;52.246;14.408;2023-05-16T04:58:35;20.25;;;16.70;;
44508;SDS011;30214;52.246;14.408;2023-05-16T05:01:03;23.50;;;15.85;;
44508;SDS011;30214;52.246;14.408;2023-05-16T05:03:30;19.75;;;15.55;;
44508;SDS011;30214;52.246;14.408;2023-05-16T05:05:58;18.15;;;15.10;;
44508;SDS011;30214;52.246;14.408;2023-05-16T05:08:27;17.52;;;14.60;;
44508;SDS011;30214;52.246;14.408;2023-05-16T05:10:54;18.52;;;14.98;;
44508;SDS011;30214;52.246;14.408;2023-05-16T05:13:22;21.85;;;15.57;;
44508;SDS011;30214;52.246;14.408;2023-05-16T05:15:49;18.70;;;14.57;;
44508;SDS011;30214;52.246;14.408;2023-05-16T05:18:16;19.77;;;14.65;;
44508;SDS011;30214;52.246;14.408;2023-05-16T05:20:43;19.33;;;14.07;;
44508;SDS011;30214;52.246;14.408;2023-05-16T05:23:11;20.63;;;14.90;;
44508;SDS011;30214;52.246;14.408;2023-05-16T05:25:39;23.38;;;14.77;;
44508;SDS011;30214;52.246;14.408;2023-05-16T05:28:06;17.55;;;13.60;;
44508;SDS011;30214;52.246;14.408;2023-05-16T05:30:33;18.80;;;13.75;;
44508;SDS011;30214;52.246;14.408;2023-05-16T05:33:00;15.48;;;12.80;;
44508;SDS011;30214;52.246;14.408;2023-05-16T05:35:27;18.13;;;13.32;;
44508;SDS011;30214;52.246;14.408;2023-05-16T05:37:54;16.70;;;12.93;;
44508;SDS011;30214;52.246;14.408;2023-05-16T05:40:24;17.67;;;12.93;;
44508;SDS011;30214;52.246;14.408;2023-05-16T05:42:52;22.20;;;13.10;;
44508;SDS011;30214;52.246;14.408;2023-05-16T05:45:19;17.75;;;13.40;;
44508;SDS011;30214;52.246;14.408;2023-05-16T05:47:46;15.20;;;13.00;;
44508;SDS011;30214;52.246;14.408;2023-05-16T05:50:13;17.90;;;13.00;;
44508;SDS011;30214;52.246;14.408;2023-05-16T05:52:41;16.20;;;12.80;;
44508;SDS011;30214;52.246;14.408;2023-05-16T05:55:08;16.65;;;13.02;;
44508;SDS011;30214;52.246;14.408;2023-05-16T05:57:35;20.10;;;12.50;;
44508;SDS011;30214;52.246;14.408;2023-05-16T06:00:07;20.88;;;12.77;;
44508;SDS011;30214;52.246;14.408;2023-05-16T06:02:36;21.42;;;14.35;;
44508;SDS011;30214;52.246;14.408;2023-05-16T06:05:03;18.42;;;12.70;;
44508;SDS011;30214;52.246;14.408;2023-05-16T06:07:31;19.83;;;13.57;;
44508;SDS011;30214;52.246;14.408;2023-05-16T06:09:59;21.65;;;13.90;;
44508;SDS011;30214;52.246;14.408;2023-05-16T06:12:29;18.35;;;12.70;;
44508;SDS011;30214;52.246;14.408;2023-05-16T06:14:56;17.25;;;12.98;;
44508;SDS011;30214;52.246;14.408;2023-05-16T06:17:24;14.70;;;12.23;;
44508;SDS011;30214;52.246;14.408;2023-05-16T06:19:51;21.27;;;13.00;;
44508;SDS011;30214;52.246;14.408;2023-05-16T06:22:18;17.88;;;11.82;;
44508;SDS011;30214;52.246;14.408;2023-05-16T06:24:45;16.40;;;12.02;;
44508;SDS011;30214;52.246;14.408;2023-05-16T06:27:12;13.10;;;10.77;;
44508;SDS011;30214;52.246;14.408;2023-05-16T06:29:39;14.27;;;11.20;;
44508;SDS011;30214;52.246;14.408;2023-05-16T06:32:06;14.82;;;10.75;;
44508;SDS011;30214;52.246;14.408;2023-05-16T06:34:34;14.35;;;11.25;;
44508;SDS011;30214;52.246;14.408;2023-05-16T06:37:01;16.27;;;10.98;;
44508;SDS011;30214;52.246;14.408;2023-05-16T06:39:29;13.73;;;11.00;;
44508;SDS011;30214;52.246;14.408;2023-05-16T06:41:56;16.08;;;11.60;;
44508;SDS011;30214;52.246;14.408;2023-05-16T06:44:23;15.68;;;11.80;;
44508;SDS011;30214;52.246;14.408;2023-05-16T06:46:50;16.25;;;11.82;;
44508;SDS011;30214;52.246;14.408;2023-05-16T06:49:17;15.23;;;11.25;;
44508;SDS011;30214;52.246;14.408;2023-05-16T06:51:45;13.55;;;11.38;;
44508;SDS011;30214;52.246;14.408;2023-05-16T06:54:12;15.07;;;11.55;;
44508;SDS011;30214;52.246;14.408;2023-05-16T06:56:39;15.50;;;12.20;;
44508;SDS011;30214;52.246;14.408;2023-05-16T06:59:06;16.20;;;12.13;;
44508;SDS011;30214;52.246;14.408;2023-05-16T07:01:33;18.45;;;12.45;;
44508;SDS011;30214;52.246;14.408;2023-05-16T07:04:00;17.02;;;12.38;;
44508;SDS011;30214;52.246;14.408;2023-05-16T07:06:27;19.35;;;12.73;;
44508;SDS011;30214;52.246;14.408;2023-05-16T07:08:56;17.95;;;13.55;;
44508;SDS011;30214;52.246;14.408;2023-05-16T07:11:23;19.63;;;13.48;;
44508;SDS011;30214;52.246;14.408;2023-05-16T07:13:50;20.52;;;13.82;;
44508;SDS011;30214;52.246;14.408;2023-05-16T07:16:17;17.33;;;13.32;;
44508;SDS011;30214;52.246;14.408;2023-05-16T07:18:45;20.42;;;12.70;;
44508;SDS011;30214;52.246;14.408;2023-05-16T07:21:12;18.50;;;12.93;;
44508;SDS011;30214;52.246;14.408;2023-05-16T07:23:39;17.30;;;12.45;;
44508;SDS011;30214;52.246;14.408;2023-05-16T07:26:07;18.13;;;13.35;;
44508;SDS011;30214;52.246;14.408;2023-05-16T07:28:35;18.63;;;12.73;;
44508;SDS011;30214;52.246;14.408;2023-05-16T07:31:02;20.90;;;12.98;;
44508;SDS011;30214;52.246;14.408;2023-05-16T07:33:30;17.48;;;12.35;;
44508;SDS011;30214;52.246;14.408;2023-05-16T07:35:57;16.33;;;12.05;;
44508;SDS011;30214;52.246;14.408;2023-05-16T07:38:25;16.45;;;12.32;;
44508;SDS011;30214;52.246;14.408;2023-05-16T07:40:52;17.45;;;12.05;;
44508;SDS011;30214;52.246;14.408;2023-05-16T07:43:20;17.13;;;11.95;;
44508;SDS011;30214;52.246;14.408;2023-05-16T07:45:47;16.80;;;12.60;;
44508;SDS011;30214;52.246;14.408;2023-05-16T07:48:15;17.83;;;12.05;;
44508;SDS011;30214;52.246;14.408;2023-05-16T07:50:45;18.83;;;12.57;;
44508;SDS011;30214;52.246;14.408;2023-05-16T07:53:13;16.38;;;12.55;;
44508;SDS011;30214;52.246;14.408;2023-05-16T07:55:43;18.27;;;12.98;;
44508;SDS011;30214;52.246;14.408;2023-05-16T07:58:10;18.83;;;13.20;;
44508;SDS011;30214;52.246;14.408;2023-05-16T08:00:39;19.33;;;13.27;;
44508;SDS011;30214;52.246;14.408;2023-05-16T08:03:06;15.98;;;13.65;;
44508;SDS011;30214;52.246;14.408;2023-05-16T08:05:33;18.25;;;13.00;;
44508;SDS011;30214;52.246;14.408;2023-05-16T08:08:00;17.52;;;13.40;;
44508;SDS011;30214;52.246;14.408;2023-05-16T08:10:27;21.17;;;13.65;;
44508;SDS011;30214;52.246;14.408;2023-05-16T08:12:54;20.20;;;13.32;;
44508;SDS011;30214;52.246;14.408;2023-05-16T08:15:22;19.63;;;14.05;;
44508;SDS011;30214;52.246;14.408;2023-05-16T08:17:51;21.35;;;14.75;;
44508;SDS011;30214;52.246;14.408;2023-05-16T08:20:22;24.52;;;14.82;;
44508;SDS011;30214;52.246;14.408;2023-05-16T08:22:49;19.13;;;14.48;;
44508;SDS011;30214;52.246;14.408;2023-05-16T08:25:16;20.65;;;14.93;;
44508;SDS011;30214;52.246;14.408;2023-05-16T08:27:44;22.13;;;13.98;;
44508;SDS011;30214;52.246;14.408;2023-05-16T08:30:11;21.35;;;14.38;;
44508;SDS011;30214;52.246;14.408;2023-05-16T08:32:39;26.33;;;15.57;;
44508;SDS011;30214;52.246;14.408;2023-05-16T08:35:08;23.30;;;15.15;;
44508;SDS011;30214;52.246;14.408;2023-05-16T08:37:37;18.92;;;13.82;;
44508;SDS011;30214;52.246;14.408;2023-05-16T08:40:05;22.40;;;14.50;;
44508;SDS011;30214;52.246;14.408;2023-05-16T08:42:35;23.65;;;14.52;;
44508;SDS011;30214;52.246;14.408;2023-05-16T08:45:03;18.27;;;13.68;;
44508;SDS011;30214;52.246;14.408;2023-05-16T08:47:32;22.15;;;14.38;;
44508;SDS011;30214;52.246;14.408;2023-05-16T08:50:01;15.65;;;13.55;;
44508;SDS011;30214;52.246;14.408;2023-05-16T08:52:32;20.35;;;12.98;;
44508;SDS011;30214;52.246;14.408;2023-05-16T08:55:03;19.90;;;13.27;;
44508;SDS011;30214;52.246;14.408;2023-05-16T08:57:32;18.13;;;12.50;;
44508;SDS011;30214;52.246;14.408;2023-05-16T08:59:59;17.15;;;12.82;;
44508;SDS011;30214;52.246;14.408;2023-05-16T09:02:31;17.13;;;12.90;;
44508;SDS011;30214;52.246;14.408;2023-05-16T09:04:58;20.50;;;12.68;;
44508;SDS011;30214;52.246;14.408;2023-05-16T09:07:25;19.30;;;12.93;;
44508;SDS011;30214;52.246;14.408;2023-05-16T09:09:54;19.88;;;12.70;;
44508;SDS011;30214;52.246;14.408;2023-05-16T09:12:22;18.55;;;13.02;;
44508;SDS011;30214;52.246;14.408;2023-05-16T09:14:49;16.20;;;12.02;;
44508;SDS011;30214;52.246;14.408;2023-05-16T09:17:17;16.13;;;11.02;;
44508;SDS011;30214;52.246;14.408;2023-05-16T09:19:44;17.00;;;11.25;;
44508;SDS011;30214;52.246;14.408;2023-05-16T09:22:13;18.92;;;11.05;;
44508;SDS011;30214;52.246;14.408;2023-05-16T09:24:41;18.13;;;11.90;;
44508;SDS011;30214;52.246;14.408;2023-05-16T09:27:13;15.20;;;11.13;;
44508;SDS011;30214;52.246;14.408;2023-05-16T09:29:41;16.63;;;11.60;;
44508;SDS011;30214;52.246;14.408;2023-05-16T09:32:10;15.55;;;11.95;;
44508;SDS011;30214;52.246;14.408;2023-05-16T09:34:42;17.02;;;11.60;;
44508;SDS011;30214;52.246;14.408;2023-05-16T09:37:10;14.20;;;11.23;;
44508;SDS011;30214;52.246;14.408;2023-05-16T09:39:38;15.40;;;10.20;;
44508;SDS011;30214;52.246;14.408;2023-05-16T09:42:09;15.63;;;10.95;;
44508;SDS011;30214;52.246;14.408;2023-05-16T09:44:39;13.55;;;10.00;;
44508;SDS011;30214;52.246;14.408;2023-05-16T09:47:06;14.40;;;9.88;;
44508;SDS011;30214;52.246;14.408;2023-05-16T09:49:35;14.50;;;10.10;;
44508;SDS011;30214;52.246;14.408;2023-05-16T09:52:03;13.57;;;9.90;;
44508;SDS011;30214;52.246;14.408;2023-05-16T09:54:31;12.18;;;8.70;;
44508;SDS011;30214;52.246;14.408;2023-05-16T09:57:00;14.43;;;8.50;;
44508;SDS011;30214;52.246;14.408;2023-05-16T09:59:28;13.88;;;8.93;;
44508;SDS011;30214;52.246;14.408;2023-05-16T10:01:56;10.60;;;8.63;;
44508;SDS011;30214;52.246;14.408;2023-05-16T10:04:24;13.80;;;9.05;;
44508;SDS011;30214;52.246;14.408;2023-05-16T10:06:52;12.27;;;8.80;;
44508;SDS011;30214;52.246;14.408;2023-05-16T10:09:22;12.23;;;8.63;;
44508;SDS011;30214;52.246;14.408;2023-05-16T10:11:50;11.88;;;8.35;;
44508;SDS011;30214;52.246;14.408;2023-05-16T10:14:18;12.18;;;8.10;;
44508;SDS011;30214;52.246;14.408;2023-05-16T10:16:47;11.68;;;7.65;;
44508;SDS011;30214;52.246;14.408;2023-05-16T10:19:15;9.60;;;7.55;;
44508;SDS011;30214;52.246;14.408;2023-05-16T10:21:47;8.82;;;6.85;;
44508;SDS011;30214;52.246;14.408;2023-05-16T10:24:20;10.48;;;6.60;;
44508;SDS011;30214;52.246;14.408;2023-05-16T10:26:54;9.00;;;7.28;;
44508;SDS011;30214;52.246;14.408;2023-05-16T10:29:21;10.07;;;7.20;;
44508;SDS011;30214;52.246;14.408;2023-05-16T10:31:51;12.05;;;7.22;;
44508;SDS011;30214;52.246;14.408;2023-05-16T10:34:18;9.70;;;6.00;;
44508;SDS011;30214;52.246;14.408;2023-05-16T10:36:46;8.20;;;6.22;;
44508;SDS011;30214;52.246;14.408;2023-05-16T10:39:14;10.25;;;6.40;;
44508;SDS011;30214;52.246;14.408;2023-05-16T10:41:42;9.02;;;6.13;;
44508;SDS011;30214;52.246;14.408;2023-05-16T10:44:12;11.70;;;6.20;;
44508;SDS011;30214;52.246;14.408;2023-05-16T10:46:41;8.00;;;6.10;;
44508;SDS011;30214;52.246;14.408;2023-05-16T10:49:23;11.63;;;6.25;;
44508;SDS011;30214;52.246;14.408;2023-05-16T10:52:00;12.80;;;6.53;;
44508;SDS011;30214;52.246;14.408;2023-05-16T10:54:34;7.82;;;5.80;;
44508;SDS011;30214;52.246;14.408;2023-05-16T10:57:04;8.60;;;5.70;;
44508;SDS011;30214;52.246;14.408;2023-05-16T10:59:41;10.38;;;5.68;;
44508;SDS011;30214;52.246;14.408;2023-05-16T11:02:26;8.98;;;5.28;;
44508;SDS011;30214;52.246;14.408;2023-05-16T11:04:58;6.20;;;4.82;;
44508;SDS011;30214;52.246;14.408;2023-05-16T11:07:29;9.77;;;4.70;;
44508;SDS011;30214;52.246;14.408;2023-05-16T11:10:04;7.72;;;4.63;;
44508;SDS011;30214;52.246;14.408;2023-05-16T11:12:43;6.18;;;4.30;;
44508;SDS011;30214;52.246;14.408;2023-05-16T11:15:18;8.85;;;4.50;;
44508;SDS011;30214;52.246;14.408;2023-05-16T11:17:49;8.00;;;4.63;;
44508;SDS011;30214;52.246;14.408;2023-05-16T11:20:29;6.78;;;4.18;;
44508;SDS011;30214;52.246;14.408;2023-05-16T11:23:17;6.38;;;4.18;;
44508;SDS011;30214;52.246;14.408;2023-05-16T11:25:51;4.53;;;3.70;;
44508;SDS011;30214;52.246;14.408;2023-05-16T11:28:20;7.22;;;4.47;;
44508;SDS011;30214;52.246;14.408;2023-05-16T11:30:51;6.43;;;4.32;;
44508;SDS011;30214;52.246;14.408;2023-05-16T11:33:31;7.50;;;4.05;;
44508;SDS011;30214;52.246;14.408;2023-05-16T11:36:02;12.57;;;4.38;;
44508;SDS011;30214;52.246;14.408;2023-05-16T11:38:31;5.55;;;3.80;;
44508;SDS011;30214;52.246;14.408;2023-05-16T11:41:03;7.10;;;3.65;;
44508;SDS011;30214;52.246;14.408;2023-05-16T11:43:39;6.03;;;3.50;;
44508;SDS011;30214;52.246;14.408;2023-05-16T11:46:09;7.32;;;3.63;;
44508;SDS011;30214;52.246;14.408;2023-05-16T11:48:37;8.30;;;3.40;;
44508;SDS011;30214;52.246;14.408;2023-05-16T11:51:07;7.30;;;3.30;;
44508;SDS011;30214;52.246;14.408;2023-05-16T11:53:35;9.52;;;3.20;;
44508;SDS011;30214;52.246;14.408;2023-05-16T11:56:03;5.38;;;2.67;;
44508;SDS011;30214;52.246;14.408;2023-05-16T11:58:33;7.25;;;3.40;;
44508;SDS011;30214;52.246;14.408;2023-05-16T12:01:02;8.50;;;3.20;;
44508;SDS011;30214;52.246;14.408;2023-05-16T12:03:30;9.07;;;2.83;;
44508;SDS011;30214;52.246;14.408;2023-05-16T12:05:59;5.85;;;2.92;;
44508;SDS011;30214;52.246;14.408;2023-05-16T12:08:27;5.05;;;2.80;;
44508;SDS011;30214;52.246;14.408;2023-05-16T12:10:54;5.70;;;3.00;;
44508;SDS011;30214;52.246;14.408;2023-05-16T12:13:23;6.68;;;2.78;;
44508;SDS011;30214;52.246;14.408;2023-05-16T12:15:51;4.85;;;2.70;;
44508;SDS011;30214;52.246;14.408;2023-05-16T12:18:21;6.60;;;3.00;;
44508;SDS011;30214;52.246;14.408;2023-05-16T12:20:50;6.32;;;2.70;;
44508;SDS011;30214;52.246;14.408;2023-05-16T12:23:17;7.13;;;2.92;;
44508;SDS011;30214;52.246;14.408;2023-05-16T12:25:46;6.35;;;2.75;;
44508;SDS011;30214;52.246;14.408;2023-05-16T12:28:13;7.18;;;2.65;;
44508;SDS011;30214;52.246;14.408;2023-05-16T12:30:41;4.95;;;2.38;;
44508;SDS011;30214;52.246;14.408;2023-05-16T12:33:12;9.20;;;2.33;;
44508;SDS011;30214;52.246;14.408;2023-05-16T12:35:41;8.10;;;2.33;;
44508;SDS011;30214;52.246;14.408;2023-05-16T12:38:11;9.88;;;2.40;;
44508;SDS011;30214;52.246;14.408;2023-05-16T12:40:40;7.15;;;2.50;;
44508;SDS011;30214;52.246;14.408;2023-05-16T12:43:13;6.50;;;2.38;;
44508;SDS011;30214;52.246;14.408;2023-05-16T12:45:41;5.13;;;2.27;;
44508;SDS011;30214;52.246;14.408;2023-05-16T12:48:15;5.78;;;2.47;;
44508;SDS011;30214;52.246;14.408;2023-05-16T12:50:42;7.10;;;2.10;;
44508;SDS011;30214;52.246;14.408;2023-05-16T12:53:11;5.47;;;1.98;;
44508;SDS011;30214;52.246;14.408;2023-05-16T12:55:40;4.88;;;1.85;;
44508;SDS011;30214;52.246;14.408;2023-05-16T12:58:09;5.43;;;2.20;;
44508;SDS011;30214;52.246;14.408;2023-05-16T13:00:38;9.82;;;5.10;;
44508;SDS011;30214;52.246;14.408;2023-05-16T13:03:06;6.22;;;1.80;;
44508;SDS011;30214;52.246;14.408;2023-05-16T13:05:36;6.90;;;2.13;;
44508;SDS011;30214;52.246;14.408;2023-05-16T13:08:03;5.28;;;2.20;;
44508;SDS011;30214;52.246;14.408;2023-05-16T13:10:31;7.78;;;2.60;;
44508;SDS011;30214;52.246;14.408;2023-05-16T13:12:58;5.70;;;2.20;;
44508;SDS011;30214;52.246;14.408;2023-05-16T13:15:25;8.55;;;2.70;;
44508;SDS011;30214;52.246;14.408;2023-05-16T13:17:54;9.13;;;3.15;;
44508;SDS011;30214;52.246;14.408;2023-05-16T13:20:21;8.68;;;2.53;;
44508;SDS011;30214;52.246;14.408;2023-05-16T13:22:48;7.75;;;2.45;;
44508;SDS011;30214;52.246;14.408;2023-05-16T13:25:15;7.22;;;2.30;;
44508;SDS011;30214;52.246;14.408;2023-05-16T13:27:42;15.00;;;4.00;;
44508;SDS011;30214;52.246;14.408;2023-05-16T13:30:10;9.45;;;2.92;;
44508;SDS011;30214;52.246;14.408;2023-05-16T13:32:38;6.95;;;2.45;;
44508;SDS011;30214;52.246;14.408;2023-05-16T13:35:07;4.88;;;2.17;;
44508;SDS011;30214;52.246;14.408;2023-05-16T13:37:34;7.85;;;2.55;;
44508;SDS011;30214;52.246;14.408;2023-05-16T13:40:04;8.63;;;2.53;;
44508;SDS011;30214;52.246;14.408;2023-05-16T13:42:38;9.38;;;2.42;;
44508;SDS011;30214;52.246;14.408;2023-05-16T13:45:06;8.40;;;2.55;;
44508;SDS011;30214;52.246;14.408;2023-05-16T13:47:34;9.10;;;2.30;;
44508;SDS011;30214;52.246;14.408;2023-05-16T13:50:01;11.02;;;2.20;;
44508;SDS011;30214;52.246;14.408;2023-05-16T13:52:34;8.30;;;2.03;;
44508;SDS011;30214;52.246;14.408;2023-05-16T13:55:02;8.15;;;2.60;;
44508;SDS011;30214;52.246;14.408;2023-05-16T13:57:33;8.55;;;1.90;;
44508;SDS011;30214;52.246;14.408;2023-05-16T14:00:01;8.10;;;2.50;;
44508;SDS011;30214;52.246;14.408;2023-05-16T14:02:37;9.43;;;2.10;;
44508;SDS011;30214;52.246;14.408;2023-05-16T14:05:05;8.35;;;2.60;;
44508;SDS011;30214;52.246;14.408;2023-05-16T14:07:35;7.85;;;2.22;;
44508;SDS011;30214;52.246;14.408;2023-05-16T14:10:02;7.93;;;2.50;;
44508;SDS011;30214;52.246;14.408;2023-05-16T14:12:34;8.75;;;2.70;;
44508;SDS011;30214;52.246;14.408;2023-05-16T14:15:05;9.90;;;2.63;;
44508;SDS011;30214;52.246;14.408;2023-05-16T14:17:38;10.82;;;2.75;;
44508;SDS011;30214;52.246;14.408;2023-05-16T14:20:06;11.88;;;2.22;;
44508;SDS011;30214;52.246;14.408;2023-05-16T14:22:41;9.13;;;2.15;;
44508;SDS011;30214;52.246;14.408;2023-05-16T14:25:09;15.00;;;2.78;;
44508;SDS011;30214;52.246;14.408;2023-05-16T14:27:41;8.48;;;1.92;;
44508;SDS011;30214;52.246;14.408;2023-05-16T14:30:09;7.45;;;2.42;;